createdAt,value
2022-12-11T00:00:56.843Z,27.33
2022-12-11T00:03:43.380Z,25.17
2022-12-11T00:06:14.914Z,26.33
2022-12-11T00:08:43.050Z,26.08
2022-12-11T00:11:13.527Z,26.45
2022-12-11T00:13:41.491Z,25.40
2022-12-11T00:16:09.782Z,25.98
2022-12-11T00:18:38.037Z,25.55
2022-12-11T00:21:08.675Z,25.08
2022-12-11T00:23:37.083Z,22.27
2022-12-11T00:26:14.045Z,23.92
2022-12-11T00:28:42.728Z,22.30
2022-12-11T00:31:16.046Z,24.35
2022-12-11T00:33:45.279Z,24.73
2022-12-11T00:36:15.141Z,23.83
2022-12-11T00:38:43.740Z,24.42
2022-12-11T00:41:12.602Z,23.13
2022-12-11T00:43:40.860Z,23.25
2022-12-11T00:46:08.718Z,21.20
2022-12-11T00:48:36.807Z,21.70
2022-12-11T00:51:04.925Z,24.17
2022-12-11T00:53:33.415Z,22.65
2022-12-11T00:56:01.321Z,22.30
2022-12-11T00:58:29.333Z,22.20
2022-12-11T01:01:17.207Z,21.55
2022-12-11T01:03:45.674Z,25.33
2022-12-11T01:06:18.451Z,25.63
2022-12-11T01:08:46.855Z,24.83
2022-12-11T01:11:16.736Z,26.75
2022-12-11T01:13:44.773Z,28.67
2022-12-11T01:16:16.017Z,28.55
2022-12-11T01:18:44.836Z,28.02
2022-12-11T01:21:13.945Z,25.58
2022-12-11T01:23:42.229Z,27.58
2022-12-11T01:26:12.697Z,24.33
2022-12-11T01:28:42.055Z,26.55
2022-12-11T01:31:14.617Z,24.77
2022-12-11T01:33:42.980Z,23.83
2022-12-11T01:36:16.056Z,25.42
2022-12-11T01:38:44.870Z,24.48
2022-12-11T01:41:13.124Z,23.17
2022-12-11T01:43:57.144Z,24.15
2022-12-11T01:46:25.380Z,25.15
2022-12-11T01:48:54.030Z,26.05
2022-12-11T01:51:22.635Z,25.50
2022-12-11T01:53:59.199Z,26.48
2022-12-11T01:56:27.577Z,24.33
2022-12-11T01:59:00.317Z,25.27
2022-12-11T02:01:57.364Z,25.08
2022-12-11T02:04:25.974Z,23.95
2022-12-11T02:06:54.609Z,25.42
2022-12-11T02:09:27.164Z,25.55
2022-12-11T02:12:11.996Z,24.52
2022-12-11T02:15:02.923Z,23.23
2022-12-11T02:17:46.777Z,21.42
2022-12-11T02:20:54.298Z,20.02
2022-12-11T02:23:54.637Z,21.38
2022-12-11T02:26:38.081Z,21.92
2022-12-11T02:29:37.797Z,21.20
2022-12-11T02:32:16.474Z,22.02
2022-12-11T02:34:55.519Z,21.80
2022-12-11T02:37:28.294Z,20.85
2022-12-11T02:39:57.603Z,21.73
2022-12-11T02:42:30.699Z,19.15
2022-12-11T02:45:01.150Z,20.33
2022-12-11T02:47:32.130Z,21.10
2022-12-11T02:50:02.488Z,22.17
2022-12-11T02:52:32.639Z,24.10
2022-12-11T02:55:03.113Z,24.20
2022-12-11T02:57:44.518Z,24.52
2022-12-11T03:00:13.084Z,22.85
2022-12-11T03:02:42.338Z,22.55
2022-12-11T03:05:13.130Z,21.02
2022-12-11T03:07:43.830Z,21.85
2022-12-11T03:10:15.495Z,20.10
2022-12-11T03:12:53.066Z,21.38
2022-12-11T03:15:30.320Z,22.35
2022-12-11T03:18:41.364Z,19.35
2022-12-11T03:21:19.380Z,20.63
2022-12-11T03:24:08.667Z,19.38
2022-12-11T03:26:56.674Z,21.20
2022-12-11T03:29:35.512Z,21.17
2022-12-11T03:32:19.963Z,20.00
2022-12-11T03:35:08.756Z,21.55
2022-12-11T03:37:41.098Z,21.25
2022-12-11T03:40:14.556Z,22.40
2022-12-11T03:42:45.056Z,17.95
2022-12-11T03:45:15.260Z,19.50
2022-12-11T03:47:45.514Z,22.85
2022-12-11T03:50:17.306Z,22.50
2022-12-11T03:52:46.713Z,23.92
2022-12-11T03:55:17.856Z,24.23
2022-12-11T03:57:45.858Z,23.42
2022-12-11T04:00:17.079Z,21.92
2022-12-11T04:02:45.241Z,21.80
2022-12-11T04:05:13.731Z,21.98
2022-12-11T04:07:41.813Z,21.38
2022-12-11T04:10:10.039Z,21.60
2022-12-11T04:12:37.822Z,24.08
2022-12-11T04:15:06.189Z,23.58
2022-12-11T04:17:55.290Z,22.70
2022-12-11T04:20:41.822Z,23.10
2022-12-11T04:23:36.508Z,24.13
2022-12-11T04:26:10.154Z,24.65
2022-12-11T04:28:38.180Z,24.83
2022-12-11T04:31:06.464Z,23.30
2022-12-11T04:33:34.271Z,22.35
2022-12-11T04:36:02.231Z,22.90
2022-12-11T04:38:29.983Z,21.08
2022-12-11T04:41:17.312Z,21.92
2022-12-11T04:43:45.511Z,21.70
2022-12-11T04:46:16.554Z,23.35
2022-12-11T04:48:44.985Z,22.00
2022-12-11T04:51:13.311Z,21.08
2022-12-11T04:53:41.806Z,21.23
2022-12-11T04:56:12.245Z,22.63
2022-12-11T04:58:41.866Z,21.80
2022-12-11T05:01:18.147Z,21.83
2022-12-11T05:03:46.386Z,23.33
2022-12-11T05:06:15.066Z,21.83
2022-12-11T05:08:45.196Z,21.33
2022-12-11T05:11:15.480Z,21.20
2022-12-11T05:13:44.011Z,20.35
2022-12-11T05:16:15.043Z,19.73
2022-12-11T05:18:43.226Z,19.63
2022-12-11T05:21:13.618Z,20.63
2022-12-11T05:23:42.251Z,18.38
2022-12-11T05:26:20.040Z,20.95
2022-12-11T05:28:51.367Z,18.00
2022-12-11T05:31:23.123Z,20.80
2022-12-11T05:33:52.018Z,20.35
2022-12-11T05:36:29.966Z,19.33
2022-12-11T05:38:59.133Z,20.15
2022-12-11T05:41:28.966Z,20.25
2022-12-11T05:43:56.841Z,18.45
2022-12-11T05:46:30.068Z,19.25
2022-12-11T05:49:01.544Z,15.65
2022-12-11T05:51:30.525Z,17.08
2022-12-11T05:53:58.666Z,20.70
2022-12-11T05:56:30.155Z,17.52
2022-12-11T05:58:58.786Z,17.75
2022-12-11T06:01:30.758Z,19.65
2022-12-11T06:03:59.436Z,18.90
2022-12-11T06:06:28.179Z,18.38
2022-12-11T06:08:57.991Z,17.80
2022-12-11T06:11:29.897Z,17.98
2022-12-11T06:13:58.220Z,18.73
2022-12-11T06:16:26.221Z,17.88
2022-12-11T06:18:57.999Z,17.13
2022-12-11T06:21:30.095Z,18.92
2022-12-11T06:24:00.913Z,18.90
2022-12-11T06:26:29.595Z,18.48
2022-12-11T06:28:57.335Z,17.75
2022-12-11T06:31:25.349Z,19.08
2022-12-11T06:33:53.056Z,18.33
2022-12-11T06:36:22.657Z,19.00
2022-12-11T06:38:50.518Z,17.52
2022-12-11T06:41:18.700Z,18.25
2022-12-11T06:43:46.608Z,18.17
2022-12-11T06:46:18.257Z,18.55
2022-12-11T06:48:47.257Z,18.90
2022-12-11T06:51:18.366Z,15.85
2022-12-11T06:53:51.147Z,17.58
2022-12-11T06:56:19.220Z,15.35
2022-12-11T06:58:47.452Z,15.93
2022-12-11T07:01:21.881Z,15.15
2022-12-11T07:03:52.281Z,16.73
2022-12-11T07:06:20.277Z,16.20
2022-12-11T07:08:48.192Z,16.83
2022-12-11T07:11:17.858Z,16.83
2022-12-11T07:13:46.284Z,16.80
2022-12-11T07:16:15.890Z,18.50
2022-12-11T07:18:49.252Z,15.13
2022-12-11T07:23:45.313Z,15.95
2022-12-11T07:26:17.165Z,15.80
2022-12-11T07:28:45.499Z,16.23
2022-12-11T07:31:16.202Z,15.93
2022-12-11T07:33:44.284Z,16.08
2022-12-11T07:36:14.533Z,14.75
2022-12-11T07:38:42.598Z,14.48
2022-12-11T07:41:13.147Z,13.95
2022-12-11T07:43:41.483Z,15.65
2022-12-11T07:46:19.716Z,14.80
2022-12-11T07:48:48.788Z,15.32
2022-12-11T07:51:25.056Z,15.15
2022-12-11T07:53:55.608Z,13.63
2022-12-11T07:56:24.148Z,15.10
2022-12-11T07:58:52.141Z,14.90
2022-12-11T08:01:26.097Z,13.18
2022-12-11T08:03:55.050Z,14.93
2022-12-11T08:06:29.989Z,14.70
2022-12-11T08:08:59.930Z,14.40
2022-12-11T08:11:28.758Z,13.75
2022-12-11T08:13:59.287Z,14.73
2022-12-11T08:16:28.260Z,14.40
2022-12-11T08:18:56.057Z,14.73
2022-12-11T08:21:27.587Z,13.85
2022-12-11T08:23:56.132Z,14.18
2022-12-11T08:26:28.534Z,16.23
2022-12-11T08:28:57.075Z,16.00
2022-12-11T08:31:25.662Z,15.95
2022-12-11T08:33:55.127Z,13.98
2022-12-11T08:36:24.525Z,16.63
2022-12-11T08:38:53.828Z,15.35
2022-12-11T08:41:31.189Z,15.65
2022-12-11T08:44:00.538Z,15.63
2022-12-11T08:46:31.969Z,16.63
2022-12-11T08:49:00.120Z,15.85
2022-12-11T08:51:30.348Z,15.15
2022-12-11T08:54:00.880Z,15.05
2022-12-11T08:56:30.343Z,15.10
2022-12-11T08:59:01.213Z,16.15
2022-12-11T09:01:29.645Z,14.43
2022-12-11T09:03:58.320Z,14.90
2022-12-11T09:06:28.197Z,15.85
2022-12-11T09:08:58.423Z,14.95
2022-12-11T09:11:30.326Z,15.10
2022-12-11T09:14:03.538Z,15.45
2022-12-11T09:16:37.855Z,16.05
2022-12-11T09:19:06.615Z,16.00
2022-12-11T09:21:34.831Z,15.55
2022-12-11T09:24:02.942Z,15.93
2022-12-11T09:26:31.247Z,17.17
2022-12-11T09:28:59.438Z,15.57
2022-12-11T09:31:33.737Z,15.02
2022-12-11T09:34:05.056Z,16.98
2022-12-11T09:36:33.661Z,16.88
2022-12-11T09:39:03.892Z,17.55
2022-12-11T09:41:40.433Z,16.40
2022-12-11T09:44:23.938Z,18.05
2022-12-11T09:49:42.939Z,16.70
2022-12-11T09:52:40.003Z,18.92
2022-12-11T09:55:25.663Z,15.75
2022-12-11T09:58:14.568Z,17.67
2022-12-11T10:00:47.463Z,18.92
2022-12-11T10:03:48.604Z,17.15
2022-12-11T10:06:25.506Z,16.77
2022-12-11T10:09:05.587Z,16.55
2022-12-11T10:11:59.094Z,15.15
2022-12-11T10:14:37.036Z,15.20
2022-12-11T10:17:30.938Z,15.07
2022-12-11T10:22:33.976Z,16.02
2022-12-11T10:25:13.022Z,15.90
2022-12-11T10:27:41.612Z,16.30
2022-12-11T10:30:18.695Z,16.88
2022-12-11T10:33:07.448Z,16.45
2022-12-11T10:35:55.021Z,17.02
2022-12-11T10:38:33.069Z,16.02
2022-12-11T10:41:02.390Z,16.85
2022-12-11T10:43:35.876Z,15.75
2022-12-11T10:46:05.102Z,15.98
2022-12-11T10:48:33.376Z,15.23
2022-12-11T10:51:07.225Z,14.13
2022-12-11T10:56:03.483Z,15.23
2022-12-11T10:58:34.285Z,16.90
2022-12-11T11:01:15.123Z,16.00
2022-12-11T11:04:15.483Z,15.98
2022-12-11T11:06:43.971Z,16.92
2022-12-11T11:09:32.113Z,17.00
2022-12-11T11:12:03.117Z,16.48
2022-12-11T11:14:35.278Z,15.85
2022-12-11T11:17:03.277Z,13.95
2022-12-11T11:19:35.248Z,14.02
2022-12-11T11:22:08.658Z,14.23
2022-12-11T11:24:39.605Z,14.10
2022-12-11T11:27:25.101Z,15.45
2022-12-11T11:30:02.452Z,15.05
2022-12-11T11:32:39.901Z,13.32
2022-12-11T11:35:13.941Z,14.23
2022-12-11T11:37:53.424Z,15.60
2022-12-11T11:40:30.469Z,15.18
2022-12-11T11:43:29.507Z,15.27
2022-12-11T11:46:04.521Z,13.70
2022-12-11T11:49:06.320Z,15.32
2022-12-11T11:51:45.273Z,12.85
2022-12-11T11:54:39.359Z,14.82
2022-12-11T11:57:32.347Z,15.07
2022-12-11T12:00:10.835Z,13.90
2022-12-11T12:02:42.568Z,14.32
2022-12-11T12:05:14.013Z,14.13
2022-12-11T12:07:44.616Z,13.57
2022-12-11T12:10:26.551Z,14.13
2022-12-11T12:13:48.595Z,13.63
2022-12-11T12:16:52.625Z,14.30
2022-12-11T12:19:36.088Z,13.60
2022-12-11T12:22:19.716Z,13.60
2022-12-11T12:25:22.047Z,10.82
2022-12-11T12:28:12.920Z,14.15
2022-12-11T12:31:16.087Z,14.25
2022-12-11T12:34:37.344Z,14.53
2022-12-11T12:37:15.177Z,14.02
2022-12-11T12:40:19.911Z,13.68
2022-12-11T12:45:38.213Z,13.27
2022-12-11T12:48:07.677Z,13.63
2022-12-11T12:50:43.610Z,13.48
2022-12-11T12:53:19.652Z,14.27
2022-12-11T12:55:49.653Z,13.15
2022-12-11T12:58:29.587Z,14.45
2022-12-11T13:01:30.298Z,12.93
2022-12-11T13:04:03.096Z,12.70
2022-12-11T13:06:38.722Z,13.70
2022-12-11T13:09:18.675Z,13.60
2022-12-11T13:11:53.531Z,13.43
2022-12-11T13:14:21.291Z,15.63
2022-12-11T13:17:04.556Z,12.35
2022-12-11T13:19:39.076Z,13.77
2022-12-11T13:22:13.748Z,12.75
2022-12-11T13:24:59.667Z,12.93
2022-12-11T13:27:41.753Z,13.95
2022-12-11T13:30:15.607Z,15.38
2022-12-11T13:32:53.627Z,12.63
2022-12-11T13:35:21.456Z,13.90
2022-12-11T13:37:52.188Z,14.13
2022-12-11T13:40:24.103Z,16.33
2022-12-11T13:43:29.990Z,14.63
2022-12-11T13:46:04.203Z,14.88
2022-12-11T13:48:43.700Z,15.23
2022-12-11T13:51:21.948Z,15.88
2022-12-11T13:54:01.712Z,16.52
2022-12-11T13:56:29.439Z,16.55
2022-12-11T13:58:57.427Z,16.60
2022-12-11T14:01:29.144Z,17.20
2022-12-11T14:04:04.809Z,17.95
2022-12-11T14:06:34.780Z,16.55
2022-12-11T14:09:05.498Z,17.35
2022-12-11T14:11:42.311Z,17.35
2022-12-11T14:14:29.341Z,17.50
2022-12-11T14:16:57.299Z,15.43
2022-12-11T14:19:25.384Z,15.38
2022-12-11T14:22:01.084Z,15.40
2022-12-11T14:24:30.462Z,15.45
2022-12-11T14:26:58.956Z,15.15
2022-12-11T14:29:32.298Z,15.10
2022-12-11T14:32:06.411Z,14.93
2022-12-11T14:34:44.366Z,14.82
2022-12-11T14:37:15.932Z,15.95
2022-12-11T14:40:07.398Z,14.85
2022-12-11T14:42:41.007Z,15.88
2022-12-11T14:45:24.395Z,14.52
2022-12-11T14:47:54.452Z,15.05
2022-12-11T14:50:31.147Z,13.18
2022-12-11T14:53:04.240Z,15.18
2022-12-11T14:55:37.556Z,14.02
2022-12-11T14:58:14.965Z,13.82
2022-12-11T15:00:42.973Z,14.30
2022-12-11T15:03:16.415Z,13.70
2022-12-11T15:05:54.570Z,14.20
2022-12-11T15:08:36.971Z,14.82
2022-12-11T15:11:11.103Z,14.23
2022-12-11T15:13:55.674Z,12.70
2022-12-11T15:16:26.860Z,13.18
2022-12-11T15:18:56.132Z,14.93
2022-12-11T15:21:33.933Z,12.90
2022-12-11T15:24:05.397Z,12.73
2022-12-11T15:26:46.392Z,13.35
2022-12-11T15:29:46.718Z,13.50
2022-12-11T15:32:20.309Z,12.43
2022-12-11T15:34:56.849Z,12.05
2022-12-11T15:37:33.768Z,12.27
2022-12-11T15:40:03.330Z,12.52
2022-12-11T15:42:43.786Z,14.32
2022-12-11T15:45:20.809Z,12.73
2022-12-11T15:47:50.709Z,13.68
2022-12-11T15:50:24.736Z,14.00
2022-12-11T15:52:54.978Z,12.43
2022-12-11T15:55:25.737Z,13.77
2022-12-11T15:57:53.881Z,12.90
2022-12-11T16:00:24.004Z,13.35
2022-12-11T16:02:52.188Z,12.55
2022-12-11T16:05:22.899Z,12.52
2022-12-11T16:07:52.366Z,12.88
2022-12-11T16:10:21.803Z,14.40
2022-12-11T16:12:50.209Z,14.55
2022-12-11T16:15:23.635Z,14.80
2022-12-11T16:18:07.648Z,15.90
2022-12-11T16:20:37.349Z,15.45
2022-12-11T16:23:05.956Z,15.32
2022-12-11T16:25:33.977Z,16.67
2022-12-11T16:28:02.644Z,16.40
2022-12-11T16:30:31.079Z,16.05
2022-12-11T16:32:59.069Z,15.90
2022-12-11T16:35:26.793Z,16.58
2022-12-11T16:37:55.407Z,14.65
2022-12-11T16:40:24.202Z,15.05
2022-12-11T16:42:52.936Z,15.00
2022-12-11T16:45:23.637Z,14.30
2022-12-11T16:47:52.492Z,15.02
2022-12-11T16:50:20.909Z,14.85
2022-12-11T16:52:49.295Z,15.63
2022-12-11T16:55:21.081Z,14.88
2022-12-11T16:57:49.304Z,15.88
2022-12-11T17:00:17.485Z,16.58
2022-12-11T17:02:45.506Z,16.27
2022-12-11T17:05:13.985Z,15.25
2022-12-11T17:07:43.304Z,15.40
2022-12-11T17:10:11.128Z,15.43
2022-12-11T17:12:39.207Z,14.68
2022-12-11T17:15:07.442Z,15.65
2022-12-11T17:17:35.415Z,16.70
2022-12-11T17:20:03.434Z,16.60
2022-12-11T17:22:31.555Z,15.55
2022-12-11T17:24:59.364Z,15.90
2022-12-11T17:27:27.579Z,14.88
2022-12-11T17:29:55.274Z,14.13
2022-12-11T17:32:23.179Z,13.52
2022-12-11T17:34:51.032Z,14.45
2022-12-11T17:37:20.168Z,14.77
2022-12-11T17:39:47.927Z,15.32
2022-12-11T17:42:15.898Z,15.13
2022-12-11T17:44:45.458Z,14.95
2022-12-11T17:47:13.969Z,15.93
2022-12-11T17:49:41.799Z,16.23
2022-12-11T17:52:09.808Z,15.52
2022-12-11T17:54:39.238Z,17.48
2022-12-11T17:57:07.588Z,17.52
2022-12-11T17:59:35.372Z,17.55
2022-12-11T18:02:03.528Z,17.90
2022-12-11T18:04:31.395Z,18.75
2022-12-11T18:06:59.393Z,18.35
2022-12-11T18:09:27.166Z,17.75
2022-12-11T18:11:55.096Z,17.48
2022-12-11T18:14:23.276Z,17.95
2022-12-11T18:16:52.623Z,17.02
2022-12-11T18:19:20.363Z,16.70
2022-12-11T18:21:48.969Z,17.67
2022-12-11T18:24:16.684Z,17.88
2022-12-11T18:26:44.894Z,16.83
2022-12-11T18:29:12.696Z,17.58
2022-12-11T18:31:42.787Z,15.98
2022-12-11T18:34:11.546Z,17.77
2022-12-11T18:36:40.791Z,15.05
2022-12-11T18:39:08.730Z,16.45
2022-12-11T18:41:36.723Z,17.00
2022-12-11T18:44:09.517Z,17.02
2022-12-11T18:49:07.436Z,19.48
2022-12-11T18:51:35.987Z,17.48
2022-12-11T18:54:03.954Z,18.25
2022-12-11T18:56:32.208Z,16.67
2022-12-11T18:58:59.932Z,16.98
2022-12-11T19:01:29.651Z,18.85
2022-12-11T19:04:04.202Z,18.92
2022-12-11T19:06:35.612Z,17.70
2022-12-11T19:09:05.552Z,19.02
2022-12-11T19:11:35.333Z,17.30
2022-12-11T19:14:05.858Z,17.40
2022-12-11T19:16:40.287Z,17.95
2022-12-11T19:19:20.064Z,17.70
2022-12-11T19:21:49.669Z,19.42
2022-12-11T19:24:20.875Z,17.60
2022-12-11T19:26:49.435Z,18.13
2022-12-11T19:29:21.943Z,18.60
2022-12-11T19:31:49.961Z,17.65
2022-12-11T19:34:18.594Z,18.10
2022-12-11T19:36:46.655Z,18.25
2022-12-11T19:39:14.663Z,17.08
2022-12-11T19:41:43.349Z,18.35
2022-12-11T19:44:11.582Z,16.40
2022-12-11T19:46:39.942Z,16.95
2022-12-11T19:49:07.849Z,18.20
2022-12-11T19:51:38.816Z,17.98
2022-12-11T19:54:12.726Z,18.38
2022-12-11T19:56:40.934Z,18.50
2022-12-11T19:59:14.053Z,19.52
2022-12-11T20:01:42.588Z,21.55
2022-12-11T20:04:13.630Z,19.13
2022-12-11T20:06:44.198Z,18.38
2022-12-11T20:09:13.319Z,19.02
2022-12-11T20:11:43.982Z,18.60
2022-12-11T20:14:19.972Z,18.33
2022-12-11T20:19:36.359Z,18.02
2022-12-11T20:22:04.632Z,17.85
2022-12-11T20:24:32.635Z,17.83
2022-12-11T20:27:00.643Z,19.30
2022-12-11T20:29:29.120Z,17.88
2022-12-11T20:31:59.733Z,18.58
2022-12-11T20:34:28.005Z,18.58
2022-12-11T20:36:56.408Z,18.25
2022-12-11T20:39:24.425Z,19.58
2022-12-11T20:41:52.492Z,20.23
2022-12-11T20:44:20.488Z,18.73
2022-12-11T20:46:48.742Z,17.33
2022-12-11T20:49:16.586Z,17.98
2022-12-11T20:51:44.534Z,20.08
2022-12-11T20:54:13.163Z,21.50
2022-12-11T20:56:41.120Z,20.55
2022-12-11T20:59:09.969Z,18.80
2022-12-11T21:01:37.993Z,18.40
2022-12-11T21:04:05.914Z,18.13
2022-12-11T21:06:36.673Z,18.70
2022-12-11T21:09:15.763Z,18.67
2022-12-11T21:11:44.058Z,17.77
2022-12-11T21:14:11.745Z,18.13
2022-12-11T21:16:40.479Z,17.42
2022-12-11T21:19:12.452Z,17.88
2022-12-11T21:21:45.423Z,18.02
2022-12-11T21:24:16.202Z,18.55
2022-12-11T21:26:44.837Z,21.48
2022-12-11T21:29:13.321Z,17.75
2022-12-11T21:31:42.991Z,19.85
2022-12-11T21:34:11.289Z,20.40
2022-12-11T21:36:39.521Z,18.13
2022-12-11T21:39:08.388Z,16.63
2022-12-11T21:41:36.617Z,17.45
2022-12-11T21:46:52.723Z,18.67
2022-12-11T21:49:20.826Z,17.40
2022-12-11T21:51:50.135Z,16.23
2022-12-11T21:54:19.535Z,15.43
2022-12-11T21:56:47.958Z,16.25
2022-12-11T21:59:17.153Z,15.50
2022-12-11T22:01:46.274Z,15.98
2022-12-11T22:04:15.164Z,14.02
2022-12-11T22:06:43.702Z,14.75
2022-12-11T22:09:13.203Z,14.50
2022-12-11T22:11:43.031Z,14.57
2022-12-11T22:14:13.963Z,13.10
2022-12-11T22:16:43.085Z,12.98
2022-12-11T22:19:11.049Z,12.57
2022-12-11T22:21:39.313Z,15.07
2022-12-11T22:24:07.431Z,14.13
2022-12-11T22:26:35.512Z,16.77
2022-12-11T22:29:03.957Z,18.23
2022-12-11T22:31:32.662Z,15.93
2022-12-11T22:34:00.649Z,15.40
2022-12-11T22:36:28.927Z,16.55
2022-12-11T22:38:56.660Z,14.80
2022-12-11T22:41:31.277Z,14.75
2022-12-11T22:43:59.440Z,16.08
2022-12-11T22:46:29.731Z,16.00
2022-12-11T22:48:58.764Z,14.02
2022-12-11T22:51:26.999Z,16.58
2022-12-11T22:53:54.831Z,14.43
2022-12-11T22:56:22.897Z,14.05
2022-12-11T22:58:51.156Z,14.10
2022-12-11T23:01:23.412Z,13.52
2022-12-11T23:03:52.027Z,14.68
2022-12-11T23:06:22.642Z,16.13
2022-12-11T23:08:51.027Z,15.10
2022-12-11T23:11:24.314Z,16.35
2022-12-11T23:13:52.873Z,15.98
2022-12-11T23:16:22.118Z,14.40
2022-12-11T23:18:50.199Z,15.55
2022-12-11T23:21:18.543Z,14.93
2022-12-11T23:23:46.837Z,15.57
2022-12-11T23:26:16.614Z,16.25
2022-12-11T23:28:44.684Z,15.85
2022-12-11T23:31:13.456Z,14.90
2022-12-11T23:33:41.557Z,17.05
2022-12-11T23:36:10.597Z,16.38
2022-12-11T23:38:39.164Z,16.65
2022-12-11T23:41:09.713Z,17.25
2022-12-11T23:43:38.402Z,17.52
2022-12-11T23:46:10.440Z,16.40
2022-12-11T23:48:38.346Z,17.45
2022-12-11T23:51:07.060Z,16.02
2022-12-11T23:53:35.244Z,16.67
2022-12-11T23:56:15.738Z,16.85
2022-12-11T23:58:43.614Z,17.88
